Rochester, Iowa
Current Conditions -  °F | °C
As of 4:52 AM on Tuesday 21 Oct 2014 (Local Time) from KIOW Reporting Station
Clear Clear  
Wind Chill: 41°   Ceiling: Unl
Heat Index: 41°   Visibility: 10mi
Dew Point: 39°   Wind: 3mph
Humidity: 93%   Direction: 40°NE
Pressure: 30.11"   Gusts: NA
Location:  41.7563°N, 91.1443°W
Report Text: KIOW 210952Z AUTO 04003KT 10SM CLR 05/04 A3011 RMK AO2 SLP197 T00500039
Loading
Personal Weather Stations






























Interactive Weather Map
Tropical Storm Tracking
New forecast layout! Learn more

10-Day Weather Forecast

Advertisements
Track Severe Weather on mobile